sensor_id;sensor_type;location;lat;lon;timestamp;P1;durP1;ratioP1;P2;durP2;ratioP2
9310;SDS011;4694;52.464;13.480;2022-11-15T06:33:59;88.07;;;39.83;;
9310;SDS011;4694;52.464;13.480;2022-11-15T06:36:26;94.43;;;40.05;;
9310;SDS011;4694;52.464;13.480;2022-11-15T06:38:54;100.25;;;43.80;;
9310;SDS011;4694;52.464;13.480;2022-11-15T06:41:21;105.32;;;45.00;;
9310;SDS011;4694;52.464;13.480;2022-11-15T06:43:47;96.72;;;45.38;;
9310;SDS011;4694;52.464;13.480;2022-11-15T06:46:14;98.13;;;44.17;;
9310;SDS011;4694;52.464;13.480;2022-11-15T06:48:40;110.05;;;47.30;;
9310;SDS011;4694;52.464;13.480;2022-11-15T06:51:08;100.47;;;45.70;;
9310;SDS011;4694;52.464;13.480;2022-11-15T06:53:35;101.97;;;45.58;;
9310;SDS011;4694;52.464;13.480;2022-11-15T06:56:02;109.68;;;47.67;;
9310;SDS011;4694;52.464;13.480;2022-11-15T06:58:31;100.55;;;45.20;;
9310;SDS011;4694;52.464;13.480;2022-11-15T07:00:58;100.15;;;46.58;;
9310;SDS011;4694;52.464;13.480;2022-11-15T07:03:25;105.32;;;46.78;;
9310;SDS011;4694;52.464;13.480;2022-11-15T07:05:52;100.72;;;47.35;;
9310;SDS011;4694;52.464;13.480;2022-11-15T07:08:22;108.82;;;46.40;;
9310;SDS011;4694;52.464;13.480;2022-11-15T07:10:49;88.28;;;44.85;;
9310;SDS011;4694;52.464;13.480;2022-11-15T07:13:16;97.63;;;45.85;;
9310;SDS011;4694;52.464;13.480;2022-11-15T07:15:43;94.00;;;46.97;;
9310;SDS011;4694;52.464;13.480;2022-11-15T07:18:10;88.15;;;42.55;;
9310;SDS011;4694;52.464;13.480;2022-11-15T07:20:36;90.13;;;44.08;;
9310;SDS011;4694;52.464;13.480;2022-11-15T07:23:05;92.97;;;42.90;;
9310;SDS011;4694;52.464;13.480;2022-11-15T07:25:33;90.93;;;43.45;;
9310;SDS011;4694;52.464;13.480;2022-11-15T07:28:00;89.57;;;40.15;;
9310;SDS011;4694;52.464;13.480;2022-11-15T07:30:27;93.93;;;44.58;;
9310;SDS011;4694;52.464;13.480;2022-11-15T07:32:54;87.57;;;42.83;;
9310;SDS011;4694;52.464;13.480;2022-11-15T07:35:20;84.45;;;40.88;;
9310;SDS011;4694;52.464;13.480;2022-11-15T07:37:52;90.03;;;41.28;;
9310;SDS011;4694;52.464;13.480;2022-11-15T07:40:20;78.80;;;38.28;;
9310;SDS011;4694;52.464;13.480;2022-11-15T07:42:48;84.47;;;40.85;;
9310;SDS011;4694;52.464;13.480;2022-11-15T07:45:22;81.25;;;38.50;;
9310;SDS011;4694;52.464;13.480;2022-11-15T07:47:50;87.78;;;42.60;;
9310;SDS011;4694;52.464;13.480;2022-11-15T07:50:17;94.43;;;44.00;;
9310;SDS011;4694;52.464;13.480;2022-11-15T07:52:44;84.43;;;39.72;;
9310;SDS011;4694;52.464;13.480;2022-11-15T07:55:11;91.85;;;42.78;;
9310;SDS011;4694;52.464;13.480;2022-11-15T07:57:38;93.95;;;43.17;;
9310;SDS011;4694;52.464;13.480;2022-11-15T08:00:06;90.15;;;42.22;;
9310;SDS011;4694;52.464;13.480;2022-11-15T08:02:34;91.53;;;41.13;;
9310;SDS011;4694;52.464;13.480;2022-11-15T08:05:00;93.30;;;40.83;;
9310;SDS011;4694;52.464;13.480;2022-11-15T08:07:29;90.85;;;41.20;;
9310;SDS011;4694;52.464;13.480;2022-11-15T08:09:56;85.88;;;39.45;;
9310;SDS011;4694;52.464;13.480;2022-11-15T08:12:23;86.63;;;45.08;;
9310;SDS011;4694;52.464;13.480;2022-11-15T08:14:50;67.93;;;34.40;;
9310;SDS011;4694;52.464;13.480;2022-11-15T08:17:18;76.13;;;38.78;;
9310;SDS011;4694;52.464;13.480;2022-11-15T08:19:45;65.30;;;34.05;;
9310;SDS011;4694;52.464;13.480;2022-11-15T08:22:13;65.47;;;32.97;;
9310;SDS011;4694;52.464;13.480;2022-11-15T08:24:39;64.47;;;34.13;;
9310;SDS011;4694;52.464;13.480;2022-11-15T08:27:06;61.38;;;33.10;;
9310;SDS011;4694;52.464;13.480;2022-11-15T08:29:39;61.20;;;32.95;;
9310;SDS011;4694;52.464;13.480;2022-11-15T08:32:07;53.33;;;28.58;;
9310;SDS011;4694;52.464;13.480;2022-11-15T08:34:35;54.97;;;29.17;;
9310;SDS011;4694;52.464;13.480;2022-11-15T08:37:02;59.67;;;33.38;;
9310;SDS011;4694;52.464;13.480;2022-11-15T08:39:29;51.72;;;30.65;;
9310;SDS011;4694;52.464;13.480;2022-11-15T08:41:55;56.28;;;31.15;;
9310;SDS011;4694;52.464;13.480;2022-11-15T08:44:22;57.58;;;31.33;;
9310;SDS011;4694;52.464;13.480;2022-11-15T08:46:49;56.60;;;30.20;;
9310;SDS011;4694;52.464;13.480;2022-11-15T08:49:16;52.92;;;32.00;;
9310;SDS011;4694;52.464;13.480;2022-11-15T08:51:44;58.75;;;30.20;;
9310;SDS011;4694;52.464;13.480;2022-11-15T08:54:10;57.28;;;30.85;;
9310;SDS011;4694;52.464;13.480;2022-11-15T08:56:37;52.20;;;30.75;;
9310;SDS011;4694;52.464;13.480;2022-11-15T08:59:04;54.42;;;28.13;;
9310;SDS011;4694;52.464;13.480;2022-11-15T09:01:31;48.60;;;28.58;;
9310;SDS011;4694;52.464;13.480;2022-11-15T09:03:57;48.42;;;27.05;;
9310;SDS011;4694;52.464;13.480;2022-11-15T09:06:24;47.00;;;26.92;;
9310;SDS011;4694;52.464;13.480;2022-11-15T09:08:52;46.08;;;26.63;;
9310;SDS011;4694;52.464;13.480;2022-11-15T09:11:19;48.40;;;25.80;;
9310;SDS011;4694;52.464;13.480;2022-11-15T09:13:47;47.92;;;27.05;;
9310;SDS011;4694;52.464;13.480;2022-11-15T09:16:13;48.17;;;26.42;;
9310;SDS011;4694;52.464;13.480;2022-11-15T09:18:40;43.20;;;24.80;;
9310;SDS011;4694;52.464;13.480;2022-11-15T09:21:07;43.08;;;24.75;;
9310;SDS011;4694;52.464;13.480;2022-11-15T09:23:35;39.40;;;23.52;;
9310;SDS011;4694;52.464;13.480;2022-11-15T09:26:03;50.80;;;26.95;;
9310;SDS011;4694;52.464;13.480;2022-11-15T09:28:31;44.45;;;25.40;;
9310;SDS011;4694;52.464;13.480;2022-11-15T09:30:59;33.70;;;21.60;;
9310;SDS011;4694;52.464;13.480;2022-11-15T09:33:27;39.53;;;21.23;;
9310;SDS011;4694;52.464;13.480;2022-11-15T09:35:54;30.05;;;19.40;;
9310;SDS011;4694;52.464;13.480;2022-11-15T09:38:25;28.85;;;19.40;;
9310;SDS011;4694;52.464;13.480;2022-11-15T09:40:53;32.17;;;20.60;;
9310;SDS011;4694;52.464;13.480;2022-11-15T09:43:37;34.88;;;19.00;;
9310;SDS011;4694;52.464;13.480;2022-11-15T09:46:14;33.53;;;19.50;;
9310;SDS011;4694;52.464;13.480;2022-11-15T09:48:47;29.63;;;19.13;;
9310;SDS011;4694;52.464;13.480;2022-11-15T09:51:19;29.73;;;17.42;;
9310;SDS011;4694;52.464;13.480;2022-11-15T09:53:54;37.33;;;22.40;;
9310;SDS011;4694;52.464;13.480;2022-11-15T09:56:27;30.48;;;17.83;;
9310;SDS011;4694;52.464;13.480;2022-11-15T09:58:59;33.40;;;18.85;;
9310;SDS011;4694;52.464;13.480;2022-11-15T10:01:39;27.45;;;16.38;;
9310;SDS011;4694;52.464;13.480;2022-11-15T10:04:10;26.55;;;18.30;;
9310;SDS011;4694;52.464;13.480;2022-11-15T10:06:38;29.02;;;16.95;;
9310;SDS011;4694;52.464;13.480;2022-11-15T10:09:11;32.80;;;16.88;;
9310;SDS011;4694;52.464;13.480;2022-11-15T10:11:41;30.95;;;16.90;;
9310;SDS011;4694;52.464;13.480;2022-11-15T10:14:11;33.47;;;19.02;;
9310;SDS011;4694;52.464;13.480;2022-11-15T10:16:45;24.75;;;15.48;;
9310;SDS011;4694;52.464;13.480;2022-11-15T10:19:44;31.95;;;17.25;;
9310;SDS011;4694;52.464;13.480;2022-11-15T10:22:21;26.85;;;15.05;;
9310;SDS011;4694;52.464;13.480;2022-11-15T10:24:58;24.73;;;16.27;;
9310;SDS011;4694;52.464;13.480;2022-11-15T10:27:36;27.25;;;16.02;;
9310;SDS011;4694;52.464;13.480;2022-11-15T10:30:06;24.13;;;15.68;;
9310;SDS011;4694;52.464;13.480;2022-11-15T10:32:38;28.38;;;14.75;;
9310;SDS011;4694;52.464;13.480;2022-11-15T10:35:16;27.60;;;16.35;;
9310;SDS011;4694;52.464;13.480;2022-11-15T10:37:44;25.48;;;15.82;;
9310;SDS011;4694;52.464;13.480;2022-11-15T10:40:14;25.35;;;16.92;;
9310;SDS011;4694;52.464;13.480;2022-11-15T10:42:43;26.17;;;17.55;;
9310;SDS011;4694;52.464;13.480;2022-11-15T10:45:23;27.27;;;16.55;;
9310;SDS011;4694;52.464;13.480;2022-11-15T10:47:51;28.63;;;17.05;;
9310;SDS011;4694;52.464;13.480;2022-11-15T10:50:26;27.50;;;16.58;;
9310;SDS011;4694;52.464;13.480;2022-11-15T10:52:55;25.65;;;15.38;;
9310;SDS011;4694;52.464;13.480;2022-11-15T10:55:24;33.40;;;17.55;;
9310;SDS011;4694;52.464;13.480;2022-11-15T10:57:53;24.35;;;16.15;;
9310;SDS011;4694;52.464;13.480;2022-11-15T11:00:29;26.00;;;16.08;;
9310;SDS011;4694;52.464;13.480;2022-11-15T11:02:59;26.58;;;16.20;;
9310;SDS011;4694;52.464;13.480;2022-11-15T11:05:28;27.30;;;16.42;;
9310;SDS011;4694;52.464;13.480;2022-11-15T11:07:57;26.77;;;15.77;;
9310;SDS011;4694;52.464;13.480;2022-11-15T11:10:24;25.75;;;15.60;;
9310;SDS011;4694;52.464;13.480;2022-11-15T11:12:51;28.17;;;17.38;;
9310;SDS011;4694;52.464;13.480;2022-11-15T11:15:18;27.38;;;16.48;;
9310;SDS011;4694;52.464;13.480;2022-11-15T11:17:51;24.45;;;16.38;;
9310;SDS011;4694;52.464;13.480;2022-11-15T11:20:32;30.02;;;16.73;;
9310;SDS011;4694;52.464;13.480;2022-11-15T11:23:11;28.38;;;16.33;;
9310;SDS011;4694;52.464;13.480;2022-11-15T11:25:48;30.70;;;18.02;;
9310;SDS011;4694;52.464;13.480;2022-11-15T11:28:26;24.77;;;15.32;;
9310;SDS011;4694;52.464;13.480;2022-11-15T11:31:06;30.00;;;17.88;;
9310;SDS011;4694;52.464;13.480;2022-11-15T11:33:44;27.55;;;16.33;;
9310;SDS011;4694;52.464;13.480;2022-11-15T11:36:20;27.27;;;15.50;;
9310;SDS011;4694;52.464;13.480;2022-11-15T11:38:55;29.33;;;16.13;;
9310;SDS011;4694;52.464;13.480;2022-11-15T11:41:40;28.23;;;17.60;;
9310;SDS011;4694;52.464;13.480;2022-11-15T11:44:18;28.23;;;15.98;;
9310;SDS011;4694;52.464;13.480;2022-11-15T11:46:56;24.88;;;15.55;;
9310;SDS011;4694;52.464;13.480;2022-11-15T11:49:29;27.42;;;15.60;;
9310;SDS011;4694;52.464;13.480;2022-11-15T11:52:03;25.10;;;16.67;;
9310;SDS011;4694;52.464;13.480;2022-11-15T11:54:38;28.20;;;16.70;;
9310;SDS011;4694;52.464;13.480;2022-11-15T11:57:12;29.13;;;15.88;;
9310;SDS011;4694;52.464;13.480;2022-11-15T11:59:43;25.75;;;16.17;;
9310;SDS011;4694;52.464;13.480;2022-11-15T12:02:15;28.35;;;16.60;;
9310;SDS011;4694;52.464;13.480;2022-11-15T12:04:49;25.92;;;16.88;;
9310;SDS011;4694;52.464;13.480;2022-11-15T12:07:20;26.95;;;15.65;;
9310;SDS011;4694;52.464;13.480;2022-11-15T12:09:51;27.27;;;15.73;;
9310;SDS011;4694;52.464;13.480;2022-11-15T12:12:25;26.95;;;16.73;;
9310;SDS011;4694;52.464;13.480;2022-11-15T12:14:59;26.98;;;16.63;;
9310;SDS011;4694;52.464;13.480;2022-11-15T12:17:29;25.77;;;15.25;;
9310;SDS011;4694;52.464;13.480;2022-11-15T12:19:59;30.42;;;16.42;;
9310;SDS011;4694;52.464;13.480;2022-11-15T12:22:33;21.90;;;14.13;;
9310;SDS011;4694;52.464;13.480;2022-11-15T12:25:04;26.77;;;16.52;;
9310;SDS011;4694;52.464;13.480;2022-11-15T12:27:40;23.08;;;15.25;;
9310;SDS011;4694;52.464;13.480;2022-11-15T12:32:38;26.38;;;15.25;;
9310;SDS011;4694;52.464;13.480;2022-11-15T12:35:21;23.55;;;15.38;;
9310;SDS011;4694;52.464;13.480;2022-11-15T12:37:51;25.08;;;15.07;;
9310;SDS011;4694;52.464;13.480;2022-11-15T12:40:28;25.52;;;16.60;;
9310;SDS011;4694;52.464;13.480;2022-11-15T12:46:04;20.40;;;13.07;;
9310;SDS011;4694;52.464;13.480;2022-11-15T12:48:47;21.15;;;13.27;;
9310;SDS011;4694;52.464;13.480;2022-11-15T12:51:21;19.27;;;13.63;;
9310;SDS011;4694;52.464;13.480;2022-11-15T13:00:00;21.55;;;12.80;;
9310;SDS011;4694;52.464;13.480;2022-11-15T13:02:32;22.70;;;12.63;;
9310;SDS011;4694;52.464;13.480;2022-11-15T13:05:49;24.67;;;13.77;;
9310;SDS011;4694;52.464;13.480;2022-11-15T13:14:03;24.50;;;13.55;;
9310;SDS011;4694;52.464;13.480;2022-11-15T13:17:22;20.98;;;12.23;;
9310;SDS011;4694;52.464;13.480;2022-11-15T13:19:57;22.23;;;12.57;;
9310;SDS011;4694;52.464;13.480;2022-11-15T13:22:27;22.13;;;12.73;;
9310;SDS011;4694;52.464;13.480;2022-11-15T13:25:38;19.73;;;12.55;;
9310;SDS011;4694;52.464;13.480;2022-11-15T13:28:18;22.33;;;13.30;;
9310;SDS011;4694;52.464;13.480;2022-11-15T13:30:50;21.10;;;12.68;;
9310;SDS011;4694;52.464;13.480;2022-11-15T13:33:19;18.33;;;12.30;;
9310;SDS011;4694;52.464;13.480;2022-11-15T13:35:48;19.92;;;12.23;;
9310;SDS011;4694;52.464;13.480;2022-11-15T13:38:18;22.42;;;13.88;;
9310;SDS011;4694;52.464;13.480;2022-11-15T13:40:51;16.63;;;10.77;;
9310;SDS011;4694;52.464;13.480;2022-11-15T13:43:23;21.90;;;11.90;;
9310;SDS011;4694;52.464;13.480;2022-11-15T13:46:06;20.17;;;12.65;;
9310;SDS011;4694;52.464;13.480;2022-11-15T13:48:35;26.50;;;14.65;;
9310;SDS011;4694;52.464;13.480;2022-11-15T13:51:02;23.17;;;13.88;;
9310;SDS011;4694;52.464;13.480;2022-11-15T13:53:31;23.13;;;14.60;;
9310;SDS011;4694;52.464;13.480;2022-11-15T13:55:59;24.88;;;12.73;;
9310;SDS011;4694;52.464;13.480;2022-11-15T13:58:28;20.13;;;13.48;;
9310;SDS011;4694;52.464;13.480;2022-11-15T14:00:59;25.02;;;15.70;;
9310;SDS011;4694;52.464;13.480;2022-11-15T14:03:29;24.85;;;13.63;;
9310;SDS011;4694;52.464;13.480;2022-11-15T14:06:02;20.55;;;13.63;;
9310;SDS011;4694;52.464;13.480;2022-11-15T14:08:32;18.73;;;11.98;;
9310;SDS011;4694;52.464;13.480;2022-11-15T14:11:06;20.63;;;14.90;;
9310;SDS011;4694;52.464;13.480;2022-11-15T14:13:35;23.13;;;13.27;;
9310;SDS011;4694;52.464;13.480;2022-11-15T14:16:14;17.23;;;12.88;;
9310;SDS011;4694;52.464;13.480;2022-11-15T14:18:45;20.42;;;14.13;;
9310;SDS011;4694;52.464;13.480;2022-11-15T14:21:14;20.33;;;12.02;;
9310;SDS011;4694;52.464;13.480;2022-11-15T14:23:41;21.13;;;12.55;;
9310;SDS011;4694;52.464;13.480;2022-11-15T14:26:11;20.88;;;12.90;;
9310;SDS011;4694;52.464;13.480;2022-11-15T14:28:54;19.20;;;12.57;;
9310;SDS011;4694;52.464;13.480;2022-11-15T14:31:21;22.50;;;13.60;;
9310;SDS011;4694;52.464;13.480;2022-11-15T14:33:49;25.73;;;13.70;;
9310;SDS011;4694;52.464;13.480;2022-11-15T14:36:16;20.90;;;14.07;;
9310;SDS011;4694;52.464;13.480;2022-11-15T14:38:44;25.73;;;14.75;;
9310;SDS011;4694;52.464;13.480;2022-11-15T14:41:16;22.55;;;13.98;;
9310;SDS011;4694;52.464;13.480;2022-11-15T14:43:45;21.40;;;13.10;;
9310;SDS011;4694;52.464;13.480;2022-11-15T14:46:12;24.73;;;14.35;;
9310;SDS011;4694;52.464;13.480;2022-11-15T14:48:38;27.00;;;15.38;;
9310;SDS011;4694;52.464;13.480;2022-11-15T14:51:10;21.80;;;13.43;;
9310;SDS011;4694;52.464;13.480;2022-11-15T14:53:39;20.98;;;13.68;;
9310;SDS011;4694;52.464;13.480;2022-11-15T14:56:06;25.10;;;17.58;;
9310;SDS011;4694;52.464;13.480;2022-11-15T14:58:33;25.58;;;13.65;;
9310;SDS011;4694;52.464;13.480;2022-11-15T15:01:00;29.38;;;19.80;;
9310;SDS011;4694;52.464;13.480;2022-11-15T15:03:30;28.75;;;15.23;;
9310;SDS011;4694;52.464;13.480;2022-11-15T15:05:56;25.90;;;14.98;;
9310;SDS011;4694;52.464;13.480;2022-11-15T15:08:25;24.40;;;15.65;;
9310;SDS011;4694;52.464;13.480;2022-11-15T15:10:51;25.75;;;16.08;;
9310;SDS011;4694;52.464;13.480;2022-11-15T15:13:19;28.08;;;13.35;;
9310;SDS011;4694;52.464;13.480;2022-11-15T15:15:47;24.63;;;14.45;;
9310;SDS011;4694;52.464;13.480;2022-11-15T15:18:15;23.90;;;14.93;;
9310;SDS011;4694;52.464;13.480;2022-11-15T15:20:43;28.05;;;17.55;;
9310;SDS011;4694;52.464;13.480;2022-11-15T15:23:14;23.45;;;13.88;;
9310;SDS011;4694;52.464;13.480;2022-11-15T15:25:43;23.42;;;15.23;;
9310;SDS011;4694;52.464;13.480;2022-11-15T15:28:13;25.58;;;15.88;;
9310;SDS011;4694;52.464;13.480;2022-11-15T15:30:40;24.92;;;14.60;;
9310;SDS011;4694;52.464;13.480;2022-11-15T15:33:07;26.38;;;15.95;;
9310;SDS011;4694;52.464;13.480;2022-11-15T15:35:34;29.85;;;17.58;;
9310;SDS011;4694;52.464;13.480;2022-11-15T15:38:02;28.40;;;15.65;;
9310;SDS011;4694;52.464;13.480;2022-11-15T15:40:29;28.55;;;15.48;;
9310;SDS011;4694;52.464;13.480;2022-11-15T15:42:59;30.63;;;17.83;;
9310;SDS011;4694;52.464;13.480;2022-11-15T15:45:26;26.00;;;14.65;;
9310;SDS011;4694;52.464;13.480;2022-11-15T15:47:53;26.98;;;15.55;;
9310;SDS011;4694;52.464;13.480;2022-11-15T15:50:20;27.20;;;16.20;;
9310;SDS011;4694;52.464;13.480;2022-11-15T15:52:49;36.05;;;20.70;;
9310;SDS011;4694;52.464;13.480;2022-11-15T15:55:16;30.42;;;18.70;;
9310;SDS011;4694;52.464;13.480;2022-11-15T15:57:43;29.27;;;18.65;;
9310;SDS011;4694;52.464;13.480;2022-11-15T16:00:11;31.17;;;18.88;;
9310;SDS011;4694;52.464;13.480;2022-11-15T16:02:39;25.50;;;15.20;;
9310;SDS011;4694;52.464;13.480;2022-11-15T16:05:06;30.27;;;18.02;;
9310;SDS011;4694;52.464;13.480;2022-11-15T16:07:33;34.50;;;19.73;;
9310;SDS011;4694;52.464;13.480;2022-11-15T16:10:00;32.03;;;18.65;;
9310;SDS011;4694;52.464;13.480;2022-11-15T16:12:28;33.17;;;19.33;;
9310;SDS011;4694;52.464;13.480;2022-11-15T16:14:55;32.05;;;17.40;;
9310;SDS011;4694;52.464;13.480;2022-11-15T16:17:24;23.10;;;15.50;;
9310;SDS011;4694;52.464;13.480;2022-11-15T16:19:52;34.47;;;19.92;;
9310;SDS011;4694;52.464;13.480;2022-11-15T16:22:19;31.95;;;18.35;;
9310;SDS011;4694;52.464;13.480;2022-11-15T16:24:45;32.75;;;18.67;;
9310;SDS011;4694;52.464;13.480;2022-11-15T16:27:13;33.78;;;19.83;;
9310;SDS011;4694;52.464;13.480;2022-11-15T16:29:41;38.90;;;20.38;;
9310;SDS011;4694;52.464;13.480;2022-11-15T16:32:07;38.20;;;22.08;;
9310;SDS011;4694;52.464;13.480;2022-11-15T16:34:36;149.45;;;69.75;;
9310;SDS011;4694;52.464;13.480;2022-11-15T16:37:03;38.70;;;22.48;;
9310;SDS011;4694;52.464;13.480;2022-11-15T16:39:31;39.92;;;21.73;;
9310;SDS011;4694;52.464;13.480;2022-11-15T16:41:57;45.78;;;25.23;;
9310;SDS011;4694;52.464;13.480;2022-11-15T16:44:24;41.30;;;24.77;;
9310;SDS011;4694;52.464;13.480;2022-11-15T16:46:51;46.47;;;25.52;;
9310;SDS011;4694;52.464;13.480;2022-11-15T16:49:18;55.35;;;30.02;;
9310;SDS011;4694;52.464;13.480;2022-11-15T16:51:47;53.42;;;31.00;;
9310;SDS011;4694;52.464;13.480;2022-11-15T16:54:15;63.33;;;32.50;;
9310;SDS011;4694;52.464;13.480;2022-11-15T16:56:41;58.00;;;29.58;;
9310;SDS011;4694;52.464;13.480;2022-11-15T16:59:08;58.53;;;33.33;;
9310;SDS011;4694;52.464;13.480;2022-11-15T17:01:41;61.63;;;32.30;;
9310;SDS011;4694;52.464;13.480;2022-11-15T17:04:15;62.50;;;34.40;;
9310;SDS011;4694;52.464;13.480;2022-11-15T17:06:43;58.42;;;32.83;;
9310;SDS011;4694;52.464;13.480;2022-11-15T17:09:13;63.80;;;34.85;;
9310;SDS011;4694;52.464;13.480;2022-11-15T17:11:41;64.30;;;36.08;;
9310;SDS011;4694;52.464;13.480;2022-11-15T17:14:07;61.40;;;34.88;;
9310;SDS011;4694;52.464;13.480;2022-11-15T17:16:34;65.40;;;36.35;;
9310;SDS011;4694;52.464;13.480;2022-11-15T17:19:02;59.45;;;35.92;;
9310;SDS011;4694;52.464;13.480;2022-11-15T17:21:29;91.72;;;40.42;;
9310;SDS011;4694;52.464;13.480;2022-11-15T17:23:57;69.40;;;37.08;;
9310;SDS011;4694;52.464;13.480;2022-11-15T17:26:25;66.82;;;36.60;;
9310;SDS011;4694;52.464;13.480;2022-11-15T17:28:53;70.70;;;41.30;;
9310;SDS011;4694;52.464;13.480;2022-11-15T17:31:21;74.65;;;41.97;;
9310;SDS011;4694;52.464;13.480;2022-11-15T17:33:49;69.53;;;38.13;;
9310;SDS011;4694;52.464;13.480;2022-11-15T17:36:16;71.47;;;41.25;;
9310;SDS011;4694;52.464;13.480;2022-11-15T17:38:43;75.35;;;42.40;;
9310;SDS011;4694;52.464;13.480;2022-11-15T17:41:15;80.15;;;44.42;;
9310;SDS011;4694;52.464;13.480;2022-11-15T17:43:43;84.38;;;44.20;;
9310;SDS011;4694;52.464;13.480;2022-11-15T17:46:11;84.57;;;45.85;;
9310;SDS011;4694;52.464;13.480;2022-11-15T17:48:39;86.07;;;44.38;;
9310;SDS011;4694;52.464;13.480;2022-11-15T17:51:10;79.35;;;42.58;;
9310;SDS011;4694;52.464;13.480;2022-11-15T17:53:37;75.70;;;44.90;;
9310;SDS011;4694;52.464;13.480;2022-11-15T17:56:06;89.28;;;46.85;;
9310;SDS011;4694;52.464;13.480;2022-11-15T17:58:34;80.45;;;44.05;;
9310;SDS011;4694;52.464;13.480;2022-11-15T18:01:06;83.53;;;43.55;;
9310;SDS011;4694;52.464;13.480;2022-11-15T18:03:34;80.80;;;43.67;;
9310;SDS011;4694;52.464;13.480;2022-11-15T18:06:01;80.40;;;45.53;;
9310;SDS011;4694;52.464;13.480;2022-11-15T18:08:28;84.05;;;44.45;;
9310;SDS011;4694;52.464;13.480;2022-11-15T18:11:04;86.50;;;44.58;;
9310;SDS011;4694;52.464;13.480;2022-11-15T18:13:32;80.65;;;42.60;;
9310;SDS011;4694;52.464;13.480;2022-11-15T18:15:59;81.15;;;45.30;;
9310;SDS011;4694;52.464;13.480;2022-11-15T18:18:30;76.57;;;41.25;;
9310;SDS011;4694;52.464;13.480;2022-11-15T18:21:00;88.13;;;45.33;;
9310;SDS011;4694;52.464;13.480;2022-11-15T18:23:29;83.32;;;45.95;;
9310;SDS011;4694;52.464;13.480;2022-11-15T18:25:57;82.05;;;41.47;;
9310;SDS011;4694;52.464;13.480;2022-11-15T18:28:27;82.05;;;44.78;;
9310;SDS011;4694;52.464;13.480;2022-11-15T18:30:56;77.25;;;40.78;;
9310;SDS011;4694;52.464;13.480;2022-11-15T18:33:23;84.15;;;45.03;;
9310;SDS011;4694;52.464;13.480;2022-11-15T18:35:58;84.68;;;43.03;;
9310;SDS011;4694;52.464;13.480;2022-11-15T18:38:25;81.82;;;44.40;;
9310;SDS011;4694;52.464;13.480;2022-11-15T18:40:54;85.25;;;43.28;;
9310;SDS011;4694;52.464;13.480;2022-11-15T18:43:22;92.95;;;47.67;;
9310;SDS011;4694;52.464;13.480;2022-11-15T18:45:48;75.53;;;43.42;;
9310;SDS011;4694;52.464;13.480;2022-11-15T18:48:15;83.05;;;47.45;;
9310;SDS011;4694;52.464;13.480;2022-11-15T18:50:42;79.45;;;44.08;;
9310;SDS011;4694;52.464;13.480;2022-11-15T18:53:10;89.50;;;44.35;;
9310;SDS011;4694;52.464;13.480;2022-11-15T18:55:36;86.90;;;44.42;;
9310;SDS011;4694;52.464;13.480;2022-11-15T18:58:03;93.60;;;51.17;;
9310;SDS011;4694;52.464;13.480;2022-11-15T19:00:30;91.88;;;44.90;;
9310;SDS011;4694;52.464;13.480;2022-11-15T19:02:56;93.03;;;47.10;;
9310;SDS011;4694;52.464;13.480;2022-11-15T19:05:23;86.68;;;44.83;;
9310;SDS011;4694;52.464;13.480;2022-11-15T19:07:49;84.15;;;42.38;;
9310;SDS011;4694;52.464;13.480;2022-11-15T19:10:17;89.72;;;43.28;;
9310;SDS011;4694;52.464;13.480;2022-11-15T19:12:44;95.63;;;47.25;;
9310;SDS011;4694;52.464;13.480;2022-11-15T19:15:11;91.13;;;44.60;;
9310;SDS011;4694;52.464;13.480;2022-11-15T19:17:37;101.00;;;44.83;;
9310;SDS011;4694;52.464;13.480;2022-11-15T19:20:04;102.93;;;47.38;;
9310;SDS011;4694;52.464;13.480;2022-11-15T19:22:31;100.65;;;46.47;;
9310;SDS011;4694;52.464;13.480;2022-11-15T19:24:58;97.10;;;47.03;;
9310;SDS011;4694;52.464;13.480;2022-11-15T19:27:26;88.35;;;43.95;;
9310;SDS011;4694;52.464;13.480;2022-11-15T19:29:52;93.50;;;46.80;;
9310;SDS011;4694;52.464;13.480;2022-11-15T19:32:19;98.22;;;45.72;;
9310;SDS011;4694;52.464;13.480;2022-11-15T19:34:46;95.72;;;45.70;;
9310;SDS011;4694;52.464;13.480;2022-11-15T19:37:12;93.47;;;42.92;;
9310;SDS011;4694;52.464;13.480;2022-11-15T19:39:39;104.13;;;45.83;;
9310;SDS011;4694;52.464;13.480;2022-11-15T19:42:05;88.25;;;46.42;;
